• Join FlightAware (Why Join?)
  • Login
  • US Flag 
12:42AM EDT


 

Airport Tracker/Info


-or-


 

Live Flight TrackerFlight Track Log ✈ UAL5942 ✈ 27-Jun-2013 ✈ KORD - CYWG

Flight Track Log - Related Links

Times and Time Zones

All times are in EDT time to prevent confusion due to time zone crossing. See the UAL5942 flight status page for this flight to view local times or setup timezone preferences in your user account.

Time Position Orientation Groundspeed Altitude Reporting Facility
EDT Latitude Longitude Course Direction KTS MPH feet Rate Location/Type
08:16PM 42.0167 -87.9667 346° North 167 192 3,300  Level Chicago TRACON
08:17PM 42.0667 -87.9833 346° North 231 266 4,800 780 Climbing Chicago TRACON
08:18PM 42.1253 -87.9169 40° Northeast 266 306 5,000 600 Climbing Chicago Center
08:19PM 42.1817 -87.8497 41° Northeast 272 313 6,200 1,680 Climbing Chicago Center
08:20PM 42.2381 -87.7742 45° Northeast 283 326 8,600 2,280 Climbing Chicago Center
08:21PM 42.3069 -87.7069 36° Northeast 275 316 11,000 2,220 Climbing Chicago Center
08:22PM 42.3828 -87.6981 North 275 316 13,300 2,340 Climbing Chicago Center
08:23PM 42.4525 -87.6953 North 260 299 15,900 1,860 Climbing Chicago Center
08:24PM 42.5178 -87.6878 North 241 277 17,200 1,200 Climbing Chicago Center
08:25PM 42.5992 -87.7131 347° North 262 302 18,400 1,020 Climbing Chicago Center
08:26PM 42.6625 -87.7811 322° Northwest 284 327 19,400 960 Climbing Chicago Center
08:27PM 42.7303 -87.8550 321° Northwest 307 353 20,400 960 Climbing Chicago Center
08:28PM 42.8011 -87.9350 320° Northwest 325 374 21,400 960 Climbing Chicago Center
08:29PM 42.8614 -88.0286 311° West 337 388 22,400 960 Climbing Chicago Center
08:31PM 42.9217 -88.1550 303° West 337 388 23,500 960 Climbing Chicago Center
08:32PM 42.9706 -88.2647 301° West 336 387 24,500 960 Climbing Chicago Center
08:33PM 43.0200 -88.3733 302° West 335 386 25,500 1,080 Climbing Chicago Center
08:34PM 43.0708 -88.4800 303° West 332 382 26,800 1,200 Climbing Chicago Center
08:35PM 43.1453 -88.5497 326° Northwest 324 373 28,000 1,200 Climbing Chicago Center
08:36PM 43.2186 -88.6178 326° Northwest 318 366 29,400 1,260 Climbing Chicago Center
08:37PM 43.2906 -88.6850 326° Northwest 310 357 30,700 1,260 Climbing Chicago Center
08:38PM 43.3731 -88.7633 325° Northwest 305 351 32,100 1,200 Climbing Chicago Center
08:39PM 43.4450 -88.8289 327° Northwest 308 354 33,300 900 Climbing Chicago Center
08:40PM 43.5156 -88.8936 326° Northwest 303 349 34,000 300 Climbing Chicago Center
08:41PM 43.5886 -88.9639 325° Northwest 314 361 34,000  Level Chicago Center
08:43PM 43.6857 -89.0145 327° Northwest  Level FlightAware Approximate
08:44PM 43.7997 -89.1636 327° Northwest 346 398 34,000  Level Minneapolis Center
08:45PM 43.8828 -89.2408 326° Northwest 356 410 34,000  Level Minneapolis Center
08:46PM 43.9772 -89.3308 326° Northwest 352 405 34,000  Level Minneapolis Center
08:47PM 44.0575 -89.4092 325° Northwest 353 406 34,000  Level Minneapolis Center
08:48PM 44.1383 -89.4867 325° Northwest 351 404 34,000  Level Minneapolis Center
08:49PM 44.2183 -89.5639 325° Northwest 350 403 34,000 180 Level Minneapolis Center
08:50PM 44.2992 -89.6406 326° Northwest 351 404 34,400 780 Climbing Minneapolis Center
08:51PM 44.3892 -89.7303 325° Northwest 343 395 35,700 720 Climbing Minneapolis Center
08:52PM 44.4653 -89.8033 326° Northwest 334 384 36,000 120 Climbing Minneapolis Center
08:53PM 44.5447 -89.8828 325° Northwest 344 396 36,000  Level Minneapolis Center
08:54PM 44.6297 -89.9622 326° Northwest 363 418 36,000  Level Minneapolis Center
08:55PM 44.7111 -90.0436 325° Northwest 361 415 36,000  Level Minneapolis Center
08:56PM 44.8028 -90.1339 325° Northwest 348 400 36,000  Level Minneapolis Center
08:57PM 44.8697 -90.1989 325° Northwest 346 398 36,000  Level Minneapolis Center
08:58PM 44.9694 -90.2989 325° Northwest 362 417 36,000  Level Minneapolis Center
08:59PM 45.0539 -90.3833 325° Northwest 370 426 36,000  Level Minneapolis Center
09:00PM 45.1394 -90.4697 325° Northwest 376 433 36,000  Level Minneapolis Center
09:01PM 45.2261 -90.5572 325° Northwest 381 438 36,000  Level Minneapolis Center
09:02PM 45.3086 -90.6403 325° Northwest 372 428 36,000  Level Minneapolis Center
09:03PM 45.3892 -90.7214 325° Northwest 360 414 36,000  Level Minneapolis Center
09:04PM 45.4861 -90.8206 324° Northwest 357 411 36,000  Level Minneapolis Center
09:05PM 45.5678 -90.9047 324° Northwest 361 415 36,000  Level Minneapolis Center
09:06PM 45.6531 -90.9919 324° Northwest 369 425 36,000  Level Minneapolis Center
09:07PM 45.7389 -91.0797 324° Northwest 375 432 36,000  Level Minneapolis Center
09:08PM 45.8247 -91.1672 325° Northwest 377 434 36,000  Level Minneapolis Center
09:09PM 45.9075 -91.2533 324° Northwest 369 425 36,000  Level Minneapolis Center
09:10PM 45.9886 -91.3389 324° Northwest 364 419 36,000  Level Minneapolis Center
09:12PM 46.0872 -91.4411 324° Northwest 363 418 36,000  Level Minneapolis Center
09:13PM 46.1703 -91.5275 324° Northwest 365 420 36,000  Level Minneapolis Center
09:14PM 46.2467 -91.6092 324° Northwest 360 414 36,000  Level Minneapolis Center
09:15PM 46.3286 -91.6936 325° Northwest 362 417 36,000  Level Minneapolis Center
09:16PM 46.4083 -91.7808 323° Northwest 361 415 36,000  Level Minneapolis Center
09:17PM 46.5050 -91.8828 324° Northwest 359 413 36,000  Level Minneapolis Center
09:18PM 46.5847 -91.9703 323° Northwest 359 413 36,000  Level Minneapolis Center
09:19PM 46.6664 -92.0569 324° Northwest 361 415 36,000  Level Minneapolis Center
09:20PM 46.7489 -92.1453 324° Northwest 367 422 36,000  Level Minneapolis Center
09:21PM 46.8306 -92.2361 323° Northwest 370 426 36,000  Level Minneapolis Center
09:22PM 46.9103 -92.3350 320° Northwest 374 430 36,000  Level Minneapolis Center
09:23PM 47.0061 -92.4542 320° Northwest 377 434 36,000 -60 Level Minneapolis Center
09:24PM 47.0869 -92.5544 320° Northwest 380 437 35,900  Descending Minneapolis Center
09:25PM 47.1681 -92.6556 320° Northwest 382 440 36,000  Climbing Minneapolis Center
09:26PM 47.2500 -92.7558 320° Northwest 384 442 36,000  Level Minneapolis Center
09:27PM 47.3317 -92.8581 320° Northwest 387 445 36,000  Level Minneapolis Center
09:28PM 47.4306 -92.9794 320° Northwest 390 449 36,000  Level Minneapolis Center
09:29PM 47.5106 -93.0853 318° Northwest 395 455 36,000 -60 Level Minneapolis Center
09:30PM 47.5919 -93.1883 320° Northwest 392 451 35,900  Descending Minneapolis Center
09:31PM 47.6742 -93.2936 319° Northwest 393 452 36,000  Climbing Minneapolis Center
09:32PM 47.7736 -93.4208 319° Northwest 395 455 36,000  Level Minneapolis Center
09:33PM 47.8572 -93.5300 319° Northwest 399 459 36,000  Level Minneapolis Center
09:34PM 47.9394 -93.6383 319° Northwest 398 458 36,000  Level Minneapolis Center
09:35PM 48.0217 -93.7450 319° Northwest 395 455 36,000  Level Minneapolis Center
09:36PM 48.1044 -93.8522 319° Northwest 394 453 36,000  Level Minneapolis Center
09:37PM 48.1864 -93.9622 318° Northwest 396 456 36,000  Level Minneapolis Center
09:38PM 48.2856 -94.0933 319° Northwest 397 457 36,000  Level Minneapolis Center
09:39PM 48.3678 -94.2011 319° Northwest 395 455 36,000  Level Minneapolis Center
09:40PM 48.4492 -94.3097 319° Northwest 393 452 36,000  Level Minneapolis Center
09:41PM 48.5303 -94.4183 318° Northwest 392 451 36,000 -600 Level Minneapolis Center
09:43PM 48.6108 -94.5267 318° Northwest 390 449 34,800 -1,320 Descending Minneapolis Center
09:44PM 48.6892 -94.6311 319° Northwest 382 440 33,300 -1,440 Descending Minneapolis Center
09:45PM 48.7675 -94.7386 318° Northwest 380 437 31,900 -1,620 Descending Minneapolis Center
09:46PM 48.8653 -94.8878 315° West 407 468 30,100 -1,620 Descending Minneapolis Center
09:47PM 48.9411 -95.0278 310° West 424 488 28,600 -1,500 Descending Minneapolis Center
09:48PM 49.0183 -95.1700 310° West 434 499 27,100 -1,500 Descending Minneapolis Center
09:49PM 49.1000 -95.3333 307° West 430 495 25,200 -1,560 Descending Winnipeg Center
09:50PM 49.1833 -95.4833 310° West 420 483 23,600 -1,500 Descending Winnipeg Center
09:51PM 49.2333 -95.6167 300° West 410 472 22,300 -1,500 Descending Winnipeg Center
09:52PM 49.3167 -95.7333 318° Northwest 400 460 20,700 -1,560 Descending Winnipeg Center
09:53PM 49.3833 -95.8667 308° West 390 449 19,200 -1,620 Descending Winnipeg Center
09:54PM 49.4500 -96.0167 304° West 390 449 17,500 -1,560 Descending Winnipeg Center
09:55PM 49.5167 -96.1167 316° Northwest 370 426 16,100 -1,500 Descending Winnipeg Center
09:56PM 49.5833 -96.2500 308° West 360 414 14,500 -1,500 Descending Winnipeg Center
09:57PM 49.6500 -96.3667 311° West 350 403 13,100 -1,380 Descending Winnipeg Center
09:58PM 49.6667 -96.5000 281° West 310 357 11,800 -1,380 Descending Winnipeg Center
09:59PM 49.6667 -96.6000 270° West 270 311 10,400 -1,500 Descending Winnipeg Center
10:00PM 49.6833 -96.7000 284° West 250 288 8,800 -1,800 Descending Winnipeg Center
10:01PM 49.7000 -96.8167 282° West 240 276 6,900 -1,800 Descending Winnipeg Center
10:02PM 49.7167 -96.9167 284° West 230 265 5,200 -1,680 Descending Winnipeg Center
10:03PM 49.7167 -97.0167 270° West 230 265 3,600 -1,080 Descending Winnipeg Center
10:04PM 49.7333 -97.1167 284° West 240 276 3,100 -300 Descending Winnipeg Center
10:05PM 49.7333 -97.2167 270° West 230 265 3,000 -120 Descending Winnipeg Center